createdAt,value
2018-07-14T00:02:24.215Z,99219.20
2018-07-14T00:04:53.358Z,99225.20
2018-07-14T00:07:22.537Z,99214.23
2018-07-14T00:09:51.826Z,99222.61
2018-07-14T00:12:20.826Z,99218.12
2018-07-14T00:14:49.903Z,99217.59
2018-07-14T00:17:18.943Z,99212.52
2018-07-14T00:19:48.017Z,99220.39
2018-07-14T00:22:17.161Z,99211.19
2018-07-14T00:24:46.237Z,99206.98
2018-07-14T00:27:15.293Z,99210.88
2018-07-14T00:29:44.374Z,99215.05
2018-07-14T00:32:13.465Z,99210.80
2018-07-14T00:34:42.631Z,99208.52
2018-07-14T00:37:11.714Z,99211.36
2018-07-14T00:39:40.808Z,99211.36
2018-07-14T00:42:09.870Z,99217.88
2018-07-14T00:44:39.000Z,99215.13
2018-07-14T00:47:08.090Z,99208.67
2018-07-14T00:49:37.154Z,99212.84
2018-07-14T00:52:06.258Z,99210.23
2018-07-14T00:54:35.334Z,99215.05
2018-07-14T00:57:04.430Z,99214.44
2018-07-14T00:59:33.537Z,99221.59
2018-07-14T01:02:02.637Z,99223.55
2018-07-14T01:04:31.713Z,99219.38
2018-07-14T01:07:00.849Z,99185.25
2018-07-14T01:09:30.000Z,99223.54
2018-07-14T01:11:59.210Z,99221.28
2018-07-14T01:14:28.400Z,99219.22
2018-07-14T01:17:00.548Z,99214.91
2018-07-14T01:19:29.634Z,99207.48
2018-07-14T01:21:59.145Z,99202.04
2018-07-14T01:24:28.908Z,99206.17
2018-07-14T01:26:58.078Z,99199.68
2018-07-14T01:29:27.180Z,99192.83
2018-07-14T01:31:56.271Z,99190.31
2018-07-14T01:34:25.334Z,99189.19
2018-07-14T01:36:54.437Z,99189.99
2018-07-14T01:39:23.494Z,99186.36
2018-07-14T01:41:52.645Z,99190.12
2018-07-14T01:44:21.765Z,99182.95
2018-07-14T01:46:50.853Z,99189.42
2018-07-14T01:49:20.718Z,99196.00
2018-07-14T01:51:49.766Z,99197.88
2018-07-14T01:54:18.881Z,99197.09
2018-07-14T01:56:48.002Z,99199.30
2018-07-14T01:59:17.010Z,99192.00
2018-07-14T02:01:46.070Z,99194.88
2018-07-14T02:04:15.271Z,99185.25
2018-07-14T02:06:44.401Z,99186.42
2018-07-14T02:09:13.489Z,99188.94
2018-07-14T02:11:42.546Z,99193.56
2018-07-14T02:14:11.600Z,99199.08
2018-07-14T02:16:40.686Z,99201.02
2018-07-14T02:19:09.795Z,99188.30
2018-07-14T02:21:38.833Z,99195.95
2018-07-14T02:24:07.952Z,99194.11
2018-07-14T02:26:37.261Z,99198.22
2018-07-14T02:29:06.317Z,99197.09
2018-07-14T02:31:35.475Z,99195.88
2018-07-14T02:34:04.614Z,99191.00
2018-07-14T02:36:33.797Z,99184.50
2018-07-14T02:39:02.966Z,99148.02
2018-07-14T02:41:31.967Z,99188.47
2018-07-14T02:44:01.158Z,99201.01
2018-07-14T02:46:30.215Z,99197.11
2018-07-14T02:48:59.332Z,99199.30
2018-07-14T02:51:28.802Z,99199.25
2018-07-14T02:53:58.034Z,99202.23
2018-07-14T02:56:27.182Z,99203.86
2018-07-14T02:58:56.589Z,99203.63
2018-07-14T03:01:25.669Z,99204.80
2018-07-14T03:03:54.782Z,99201.86
2018-07-14T03:06:23.932Z,99199.00
2018-07-14T03:08:54.497Z,99197.37
2018-07-14T03:11:23.987Z,99210.31
2018-07-14T03:13:53.091Z,99207.95
2018-07-14T03:16:22.221Z,99203.83
2018-07-14T03:18:51.325Z,99199.31
2018-07-14T03:21:20.430Z,99198.17
2018-07-14T03:23:49.515Z,99196.23
2018-07-14T03:26:18.657Z,99197.25
2018-07-14T03:28:47.840Z,99201.31
2018-07-14T03:31:16.934Z,99204.52
2018-07-14T03:33:46.010Z,99208.79
2018-07-14T03:36:15.240Z,99210.02
2018-07-14T03:38:44.395Z,99207.47
2018-07-14T03:41:13.474Z,99206.27
2018-07-14T03:43:42.761Z,99197.28
2018-07-14T03:46:12.131Z,99204.22
2018-07-14T03:48:41.563Z,99202.25
2018-07-14T03:51:11.560Z,99212.11
2018-07-14T03:53:40.592Z,99213.44
2018-07-14T03:56:09.742Z,99211.56
2018-07-14T03:58:39.279Z,99214.59
2018-07-14T04:01:08.443Z,99218.03
2018-07-14T04:03:37.488Z,99221.48
2018-07-14T04:06:07.213Z,99223.42
2018-07-14T04:08:36.390Z,99222.26
2018-07-14T04:11:05.568Z,99220.87
2018-07-14T04:13:34.654Z,99222.44
2018-07-14T04:16:03.802Z,99229.91
2018-07-14T04:18:32.922Z,99240.19
2018-07-14T04:21:02.118Z,99231.41
2018-07-14T04:23:31.221Z,99232.84
2018-07-14T04:26:00.679Z,99231.02
2018-07-14T04:28:30.182Z,99223.55
2018-07-14T04:30:59.272Z,99225.48
2018-07-14T04:33:28.376Z,99226.55
2018-07-14T04:35:57.473Z,99227.73
2018-07-14T04:38:26.694Z,99225.55
2018-07-14T04:40:55.734Z,99196.25
2018-07-14T04:43:24.827Z,99231.02
2018-07-14T04:45:53.994Z,99234.34
2018-07-14T04:48:23.205Z,99235.83
2018-07-14T04:50:52.310Z,99226.11
2018-07-14T04:53:21.473Z,99225.80
2018-07-14T04:55:50.670Z,99222.90
2018-07-14T04:58:19.763Z,99217.55
2018-07-14T05:00:48.886Z,99223.02
2018-07-14T05:03:18.405Z,99222.34
2018-07-14T05:05:47.641Z,99218.82
2018-07-14T05:08:16.714Z,99219.88
2018-07-14T05:10:45.753Z,99188.67
2018-07-14T05:13:14.865Z,99222.13
2018-07-14T05:15:44.007Z,99219.80
2018-07-14T05:18:13.118Z,99222.16
2018-07-14T05:20:42.187Z,99226.16
2018-07-14T05:23:11.266Z,99227.44
2018-07-14T05:25:40.518Z,99218.56
2018-07-14T05:28:10.950Z,99219.74
2018-07-14T05:30:40.094Z,99221.88
2018-07-14T05:33:09.711Z,99225.94
2018-07-14T05:35:38.836Z,99226.00
2018-07-14T05:38:08.153Z,99225.69
2018-07-14T05:40:37.235Z,99221.88
2018-07-14T05:43:07.741Z,99226.31
2018-07-14T05:45:36.909Z,99234.25
2018-07-14T05:48:06.933Z,99234.53
2018-07-14T05:50:36.096Z,99238.36
2018-07-14T05:53:05.303Z,99230.03
2018-07-14T05:55:34.399Z,99235.58
2018-07-14T05:58:03.503Z,99235.67
2018-07-14T06:00:32.632Z,99231.94
2018-07-14T06:03:01.742Z,99239.34
2018-07-14T06:05:30.888Z,99242.56
2018-07-14T06:08:00.402Z,99248.97
2018-07-14T06:10:29.678Z,99248.16
2018-07-14T06:12:58.760Z,99242.05
2018-07-14T06:15:27.889Z,99239.01
2018-07-14T06:17:57.076Z,99239.95
2018-07-14T06:20:26.176Z,99239.73
2018-07-14T06:22:55.336Z,99241.48
2018-07-14T06:25:24.594Z,99240.93
2018-07-14T06:27:54.353Z,99240.45
2018-07-14T06:30:25.377Z,99241.95
2018-07-14T06:32:54.460Z,99244.95
2018-07-14T06:35:23.842Z,99242.91
2018-07-14T06:37:52.973Z,99240.14
2018-07-14T06:40:22.391Z,99243.39
2018-07-14T06:42:51.524Z,99241.71
2018-07-14T06:45:20.770Z,99241.69
2018-07-14T06:47:50.628Z,99245.07
2018-07-14T06:50:20.065Z,99248.06
2018-07-14T06:52:49.245Z,99248.28
2018-07-14T06:55:18.573Z,99243.76
2018-07-14T06:57:47.630Z,99252.50
2018-07-14T07:00:16.766Z,99253.27
2018-07-14T07:02:45.973Z,99250.15
2018-07-14T07:05:15.048Z,99249.40
2018-07-14T07:07:44.140Z,99245.99
2018-07-14T07:10:13.218Z,99239.78
2018-07-14T07:12:42.334Z,99243.62
2018-07-14T07:15:11.426Z,99246.59
2018-07-14T07:17:40.544Z,99246.22
2018-07-14T07:20:09.688Z,99246.73
2018-07-14T07:22:38.794Z,99256.29
2018-07-14T07:25:07.913Z,99248.67
2018-07-14T07:27:37.095Z,99254.44
2018-07-14T07:30:07.097Z,99252.55
2018-07-14T07:32:36.187Z,99251.26
2018-07-14T07:35:05.336Z,99242.86
2018-07-14T07:37:34.524Z,99243.56
2018-07-14T07:40:03.681Z,99242.52
2018-07-14T07:42:33.160Z,99245.66
2018-07-14T07:45:02.356Z,99241.11
2018-07-14T07:47:31.450Z,99244.04
2018-07-14T07:50:00.705Z,99244.94
2018-07-14T07:52:29.794Z,99249.77
2018-07-14T07:54:59.469Z,99240.44
2018-07-14T07:57:28.599Z,99241.59
2018-07-14T07:59:57.733Z,99249.67
2018-07-14T08:02:26.881Z,99248.20
2018-07-14T08:04:55.971Z,99242.72
2018-07-14T08:07:25.081Z,99239.20
2018-07-14T08:09:54.209Z,99235.58
2018-07-14T08:12:23.358Z,99236.10
2018-07-14T08:14:52.585Z,99234.85
2018-07-14T08:17:21.767Z,99234.91
2018-07-14T08:19:51.297Z,99233.88
2018-07-14T08:22:20.486Z,99236.88
2018-07-14T08:24:49.676Z,99236.59
2018-07-14T08:27:18.908Z,99233.42
2018-07-14T08:29:47.955Z,99227.97
2018-07-14T08:32:17.332Z,99229.36
2018-07-14T08:34:46.383Z,99229.89
2018-07-14T08:37:15.461Z,99225.16
2018-07-14T08:39:44.586Z,99224.14
2018-07-14T08:42:13.713Z,99214.56
2018-07-14T08:44:42.960Z,99212.64
2018-07-14T08:47:12.009Z,99212.38
2018-07-14T08:49:41.085Z,99217.53
2018-07-14T08:52:10.184Z,99222.29
2018-07-14T08:54:39.277Z,99217.67
2018-07-14T08:57:09.573Z,99216.77
2018-07-14T08:59:38.681Z,99220.92
2018-07-14T09:02:07.788Z,99218.00
2018-07-14T09:04:36.854Z,99211.02
2018-07-14T09:07:06.179Z,99209.98
2018-07-14T09:09:35.398Z,99209.84
2018-07-14T09:12:04.529Z,99212.39
2018-07-14T09:14:33.831Z,99213.75
2018-07-14T09:17:02.931Z,99218.38
2018-07-14T09:19:32.023Z,99216.80
2018-07-14T09:22:01.905Z,99216.56
2018-07-14T09:24:32.818Z,99208.33
2018-07-14T09:27:01.913Z,99210.69
2018-07-14T09:29:31.137Z,99212.92
2018-07-14T09:32:00.314Z,99211.90
2018-07-14T09:34:29.426Z,99206.34
2018-07-14T09:36:58.471Z,99197.91
2018-07-14T09:39:27.573Z,99198.86
2018-07-14T09:41:56.654Z,99202.84
2018-07-14T09:44:26.837Z,99198.14
2018-07-14T09:46:56.010Z,99198.91
2018-07-14T09:49:25.107Z,99196.38
2018-07-14T09:51:54.721Z,99203.91
2018-07-14T09:54:24.323Z,99195.12
2018-07-14T09:56:53.488Z,99195.16
2018-07-14T09:59:22.636Z,99197.39
2018-07-14T10:01:51.856Z,99199.84
2018-07-14T10:04:21.120Z,99186.45
2018-07-14T10:06:50.907Z,99182.41
2018-07-14T10:09:20.004Z,99179.64
2018-07-14T10:11:49.138Z,99179.17
2018-07-14T10:14:18.291Z,99174.75
2018-07-14T10:16:47.384Z,99173.77
2018-07-14T10:19:17.534Z,99169.00
2018-07-14T10:21:46.780Z,99176.63
2018-07-14T10:24:15.963Z,99169.05
2018-07-14T10:26:45.079Z,99170.02
2018-07-14T10:29:14.227Z,99166.17
2018-07-14T10:31:47.370Z,99170.66
2018-07-14T10:34:16.551Z,99166.67
2018-07-14T10:36:46.185Z,99154.09
2018-07-14T10:39:15.461Z,99149.68
2018-07-14T10:41:44.594Z,99159.34
2018-07-14T10:44:13.725Z,99155.59
2018-07-14T10:46:42.956Z,99150.24
2018-07-14T10:49:12.354Z,99155.20
2018-07-14T10:51:41.460Z,99154.04
2018-07-14T10:54:10.565Z,99150.05
2018-07-14T10:56:39.827Z,99144.14
2018-07-14T10:59:09.010Z,99140.78
2018-07-14T11:01:38.308Z,99143.33
2018-07-14T11:04:08.461Z,99136.31
2018-07-14T11:06:37.641Z,99125.37
2018-07-14T11:09:07.599Z,99126.27
2018-07-14T11:11:36.697Z,99118.78
2018-07-14T11:14:05.834Z,99119.80
2018-07-14T11:16:35.031Z,99119.88
2018-07-14T11:19:04.170Z,99118.58
2018-07-14T11:21:33.320Z,99114.50
2018-07-14T11:24:02.380Z,99106.98
2018-07-14T11:26:31.530Z,99107.77
2018-07-14T11:29:01.082Z,99115.20
2018-07-14T11:31:30.312Z,99113.12
2018-07-14T11:33:59.622Z,99106.22
2018-07-14T11:36:28.822Z,99104.91
2018-07-14T11:38:58.465Z,99111.19
2018-07-14T11:41:27.580Z,99111.16
2018-07-14T11:43:56.710Z,99105.31
2018-07-14T11:46:25.757Z,99107.08
2018-07-14T11:48:54.890Z,99104.88
2018-07-14T11:51:24.153Z,99101.55
2018-07-14T11:53:53.660Z,99097.66
2018-07-14T11:56:22.776Z,99094.16
2018-07-14T11:58:51.917Z,99096.13
2018-07-14T12:01:21.097Z,99097.63
2018-07-14T12:03:50.164Z,99095.98
2018-07-14T12:06:19.207Z,99091.12
2018-07-14T12:08:48.333Z,99090.50
2018-07-14T12:11:17.441Z,99090.09
2018-07-14T12:13:46.566Z,99081.92
2018-07-14T12:16:15.678Z,99084.86
2018-07-14T12:18:45.074Z,99078.98
2018-07-14T12:21:14.459Z,99072.22
2018-07-14T12:23:43.568Z,99074.17
2018-07-14T12:26:12.721Z,99079.04
2018-07-14T12:28:41.927Z,99070.00
2018-07-14T12:31:11.414Z,99067.45
2018-07-14T12:33:40.478Z,99061.98
2018-07-14T12:36:09.735Z,99061.21
2018-07-14T12:38:38.921Z,99067.04
2018-07-14T12:41:08.118Z,99046.94
2018-07-14T12:43:37.344Z,99042.10
2018-07-14T12:46:06.450Z,99044.28
2018-07-14T12:48:35.517Z,99042.38
2018-07-14T12:51:04.642Z,99036.28
2018-07-14T12:53:33.789Z,99035.78
2018-07-14T12:56:04.839Z,99037.11
2018-07-14T12:58:33.985Z,99030.01
2018-07-14T13:01:03.640Z,98933.02
2018-07-14T13:03:32.809Z,99031.27
2018-07-14T13:06:01.940Z,99026.99
2018-07-14T13:08:31.056Z,99032.55
2018-07-14T13:11:00.297Z,99025.67
2018-07-14T13:13:29.336Z,99027.72
2018-07-14T13:15:58.436Z,99024.50
2018-07-14T13:18:27.537Z,99029.72
2018-07-14T13:20:56.635Z,99023.31
2018-07-14T13:23:26.301Z,99020.00
2018-07-14T13:25:55.434Z,99023.50
2018-07-14T13:28:24.529Z,99016.86
2018-07-14T13:30:53.631Z,99012.61
2018-07-14T13:33:23.056Z,99010.25
2018-07-14T13:35:52.714Z,99008.17
2018-07-14T13:38:22.184Z,99000.83
2018-07-14T13:40:51.381Z,99005.99
2018-07-14T13:43:20.691Z,99003.89
2018-07-14T13:45:49.794Z,99002.65
2018-07-14T14:09:49.267Z,98987.02
2018-07-14T14:12:18.381Z,98982.52
2018-07-14T14:14:47.910Z,98978.77
2018-07-14T14:17:17.001Z,98972.45
2018-07-14T14:19:46.163Z,98971.91
2018-07-14T14:22:15.244Z,98967.56
2018-07-14T14:24:44.453Z,98966.95
2018-07-14T14:27:20.023Z,98966.89
2018-07-14T14:29:49.118Z,98967.61
2018-07-14T14:32:18.201Z,98967.23
2018-07-14T14:34:47.314Z,98965.93
2018-07-14T14:37:16.440Z,98963.13
2018-07-14T14:39:45.831Z,98964.63
2018-07-14T14:42:14.924Z,98962.65
2018-07-14T14:44:44.175Z,98962.03
2018-07-14T14:47:13.278Z,98959.95
2018-07-14T14:49:42.341Z,98967.70
2018-07-14T14:52:11.485Z,98965.20
2018-07-14T14:54:40.556Z,98941.34
2018-07-14T14:57:09.670Z,98963.52
2018-07-14T14:59:39.742Z,98964.28
2018-07-14T15:02:08.829Z,98958.66
2018-07-14T15:04:37.984Z,98961.56
2018-07-14T15:07:07.571Z,98957.30
2018-07-14T15:09:36.633Z,98960.19
2018-07-14T15:12:05.700Z,98953.03
2018-07-14T15:14:34.802Z,98959.46
2018-07-14T15:17:03.943Z,98955.38
2018-07-14T15:19:32.973Z,98955.55
2018-07-14T15:22:02.146Z,98944.16
2018-07-14T15:24:31.228Z,98936.06
2018-07-14T15:27:00.405Z,98943.09
2018-07-14T15:29:29.461Z,98941.47
2018-07-14T15:31:58.557Z,98943.94
2018-07-14T15:34:27.621Z,98939.60
2018-07-14T15:36:56.714Z,98942.53
2018-07-14T15:39:25.769Z,98937.69
2018-07-14T15:41:54.842Z,98934.69
2018-07-14T15:44:24.010Z,98935.54
2018-07-14T15:46:53.281Z,98930.45
2018-07-14T15:49:22.398Z,98936.69
2018-07-14T15:51:51.499Z,98939.36
2018-07-14T15:54:20.683Z,98932.50
2018-07-14T15:56:49.862Z,98940.23
2018-07-14T15:59:18.965Z,98946.33
2018-07-14T16:01:48.044Z,98892.84
2018-07-14T16:04:17.194Z,98933.54
2018-07-14T16:06:46.254Z,98931.25
2018-07-14T16:09:15.360Z,98934.59
2018-07-14T16:11:44.450Z,98929.71
2018-07-14T16:14:13.609Z,98928.83
2018-07-14T16:16:42.722Z,98931.66
2018-07-14T16:19:11.810Z,98929.61
2018-07-14T16:21:40.864Z,98923.27
2018-07-14T16:24:09.998Z,98917.88
2018-07-14T16:26:39.267Z,98919.00
2018-07-14T16:29:08.417Z,98913.35
2018-07-14T16:31:37.484Z,98910.84
2018-07-14T16:34:06.623Z,98913.66
2018-07-14T16:36:35.834Z,98917.20
2018-07-14T16:39:07.100Z,98907.66
2018-07-14T16:41:36.189Z,98913.95
2018-07-14T16:44:05.362Z,98906.95
2018-07-14T16:46:34.459Z,98905.17
2018-07-14T16:49:03.577Z,98902.00
2018-07-14T16:51:32.661Z,98899.45
2018-07-14T16:54:01.798Z,98896.06
2018-07-14T16:56:30.943Z,98897.33
2018-07-14T16:59:00.024Z,98894.59
2018-07-14T17:01:29.109Z,98894.17
2018-07-14T17:03:58.183Z,98894.55
2018-07-14T17:06:27.275Z,98889.48
2018-07-14T17:08:56.378Z,98893.63
2018-07-14T17:11:25.467Z,98887.00
2018-07-14T17:13:54.567Z,98881.64
2018-07-14T17:16:23.650Z,98882.59
2018-07-14T17:18:52.723Z,98874.30
2018-07-14T17:21:21.827Z,98884.52
2018-07-14T17:23:50.968Z,98880.70
2018-07-14T17:26:20.097Z,98879.13
2018-07-14T17:28:49.240Z,98871.19
2018-07-14T17:31:18.406Z,98875.94
2018-07-14T17:33:47.461Z,98874.84
2018-07-14T17:36:16.701Z,98871.27
2018-07-14T17:38:45.744Z,98868.73
2018-07-14T17:41:14.854Z,98867.34
2018-07-14T17:43:44.040Z,98871.27
2018-07-14T17:46:13.093Z,98866.75
2018-07-14T17:48:42.106Z,98866.81
2018-07-14T17:51:14.869Z,98865.31
2018-07-14T17:53:44.069Z,98862.75
2018-07-14T17:56:13.152Z,98864.87
2018-07-14T17:58:43.728Z,98860.27
2018-07-14T18:01:12.852Z,98866.70
2018-07-14T18:03:41.879Z,98861.41
2018-07-14T18:06:12.113Z,98861.56
2018-07-14T18:08:41.190Z,98868.83
2018-07-14T18:11:11.579Z,98864.97
2018-07-14T18:13:41.043Z,98863.45
2018-07-14T18:16:10.215Z,98859.52
2018-07-14T18:18:40.372Z,98860.27
2018-07-14T18:21:09.421Z,98868.04
2018-07-14T18:23:38.594Z,98865.36
2018-07-14T18:26:07.869Z,98870.06
2018-07-14T18:28:36.896Z,98871.81
2018-07-14T18:31:06.026Z,98867.75
2018-07-14T18:33:35.332Z,98865.59
2018-07-14T18:36:04.521Z,98867.34
2018-07-14T18:38:34.175Z,98869.90
2018-07-14T18:41:03.253Z,98876.69
2018-07-14T18:43:32.323Z,98873.37
2018-07-14T18:46:01.403Z,98873.57
2018-07-14T18:48:30.585Z,98875.53
2018-07-14T18:50:59.634Z,98874.94
2018-07-14T18:53:28.718Z,98868.66
2018-07-14T18:55:58.017Z,98876.95
2018-07-14T18:58:27.714Z,98871.28
2018-07-14T19:00:56.857Z,98871.91
2018-07-14T19:03:25.949Z,98877.61
2018-07-14T19:05:55.066Z,98874.91
2018-07-14T19:08:25.173Z,98879.75
2018-07-14T19:10:54.528Z,98878.21
2018-07-14T19:13:24.033Z,98879.36
2018-07-14T19:15:53.097Z,98881.89
2018-07-14T19:18:22.537Z,98883.23
2018-07-14T19:20:51.656Z,98881.98
2018-07-14T19:23:20.838Z,98888.02
2018-07-14T19:25:50.000Z,98888.17
2018-07-14T19:28:19.009Z,98886.23
2018-07-14T19:30:48.927Z,98895.37
2018-07-14T19:33:17.989Z,98895.11
2018-07-14T19:35:47.124Z,98898.94
2018-07-14T19:38:16.263Z,98906.57
2018-07-14T19:40:45.718Z,98907.70
2018-07-14T19:43:16.195Z,98914.66
2018-07-14T19:45:45.329Z,98916.13
2018-07-14T19:48:14.413Z,98919.58
2018-07-14T19:50:43.613Z,98926.69
2018-07-14T19:53:12.717Z,98936.14
2018-07-14T19:55:41.870Z,98940.14
2018-07-14T19:58:10.980Z,98942.92
2018-07-14T20:00:40.189Z,98949.70
2018-07-14T20:03:09.308Z,98947.44
2018-07-14T20:05:38.469Z,98939.31
2018-07-14T20:08:07.572Z,98939.71
2018-07-14T20:10:36.767Z,98950.11
2018-07-14T20:13:05.950Z,98958.00
2018-07-14T20:15:35.182Z,98955.02
2018-07-14T20:18:04.292Z,98957.22
2018-07-14T20:20:33.467Z,98954.27
2018-07-14T20:23:02.723Z,98957.52
2018-07-14T20:25:31.920Z,98963.84
2018-07-14T20:28:01.391Z,98960.02
2018-07-14T20:30:30.887Z,98951.14
2018-07-14T20:33:00.089Z,98959.05
2018-07-14T20:35:29.314Z,98968.38
2018-07-14T20:37:58.495Z,98965.31
2018-07-14T20:40:29.499Z,98970.74
2018-07-14T20:42:59.837Z,98970.12
2018-07-14T20:45:32.494Z,98970.50
2018-07-14T20:48:01.754Z,98968.45
2018-07-14T20:50:30.839Z,98968.89
2018-07-14T20:52:59.989Z,98965.93
2018-07-14T20:55:29.524Z,98970.70
2018-07-14T20:57:58.771Z,98972.59
2018-07-14T21:00:28.024Z,98978.56
2018-07-14T21:02:57.315Z,98971.37
2018-07-14T21:05:26.526Z,98973.84
2018-07-14T21:07:55.640Z,98969.78
2018-07-14T21:10:24.825Z,98967.01
2018-07-14T21:12:54.043Z,98973.94
2018-07-14T21:15:23.272Z,98965.23
2018-07-14T21:17:52.465Z,98964.92
2018-07-14T21:20:22.288Z,98988.28
2018-07-14T21:22:51.518Z,98969.92
2018-07-14T21:25:20.612Z,98971.43
2018-07-14T21:27:50.346Z,98977.16
2018-07-14T21:30:19.532Z,98975.72
2018-07-14T21:32:49.160Z,98976.74
2018-07-14T21:35:18.400Z,98986.81
2018-07-14T21:37:48.186Z,98984.09
2018-07-14T21:40:17.421Z,98983.30
2018-07-14T21:42:46.684Z,98982.23
2018-07-14T21:45:15.940Z,98986.28
2018-07-14T21:47:45.042Z,98983.16
2018-07-14T21:50:15.079Z,98990.34
2018-07-14T21:52:44.518Z,98989.33
2018-07-14T21:55:13.657Z,98988.81
2018-07-14T21:57:42.797Z,98989.74
2018-07-14T22:00:22.026Z,98986.48
2018-07-14T22:02:51.073Z,98989.76
2018-07-14T22:05:20.280Z,98992.61
2018-07-14T22:07:49.323Z,98991.91
2018-07-14T22:10:18.439Z,98996.97
2018-07-14T22:12:47.572Z,99000.86
2018-07-14T22:15:16.754Z,99001.63
2018-07-14T22:17:45.971Z,99002.86
2018-07-14T22:20:15.111Z,99003.58
2018-07-14T22:22:44.242Z,98997.82
2018-07-14T22:25:13.747Z,98998.48
2018-07-14T22:27:42.940Z,98997.81
2018-07-14T22:30:12.067Z,99006.40
2018-07-14T22:32:41.210Z,99005.36
2018-07-14T22:35:10.313Z,99005.36
2018-07-14T22:37:39.447Z,99002.27
2018-07-14T22:40:08.533Z,99001.84
2018-07-14T22:42:37.645Z,98645.59
2018-07-14T22:45:06.787Z,99004.77
2018-07-14T22:47:35.898Z,99006.48
2018-07-14T22:50:04.986Z,99004.31
2018-07-14T22:52:34.193Z,99009.39
2018-07-14T22:55:03.288Z,99007.02
2018-07-14T22:57:32.373Z,99012.72
2018-07-14T23:00:01.494Z,99014.23
2018-07-14T23:02:30.586Z,99009.44
2018-07-14T23:04:59.684Z,99008.95
2018-07-14T23:07:28.762Z,99008.22
2018-07-14T23:09:57.878Z,99010.43
2018-07-14T23:12:26.918Z,99000.48
2018-07-14T23:14:56.074Z,98994.75
2018-07-14T23:17:25.156Z,98999.81
2018-07-14T23:19:54.372Z,98999.06
2018-07-14T23:22:23.488Z,99004.09
2018-07-14T23:24:52.603Z,99002.74
2018-07-14T23:27:21.687Z,99007.81
2018-07-14T23:29:50.841Z,99000.19
2018-07-14T23:32:19.971Z,99002.95
2018-07-14T23:34:49.210Z,99004.86
2018-07-14T23:37:18.402Z,98998.36
2018-07-14T23:39:47.523Z,98998.58
2018-07-14T23:42:16.605Z,98996.54
2018-07-14T23:44:45.690Z,99009.70
2018-07-14T23:47:14.779Z,99005.77
2018-07-14T23:49:43.928Z,99005.56
2018-07-14T23:52:13.526Z,99005.71
2018-07-14T23:54:42.636Z,98997.52
2018-07-14T23:57:11.758Z,98992.39
2018-07-14T23:59:41.018Z,98981.30
